createdAt,value
2023-02-26T00:01:25.735Z,20.90
2023-02-26T00:03:56.212Z,24.50
2023-02-26T00:06:24.603Z,23.20
2023-02-26T00:08:52.112Z,22.10
2023-02-26T00:11:19.996Z,21.00
2023-02-26T00:13:47.233Z,23.70
2023-02-26T00:16:26.738Z,24.10
2023-02-26T00:18:56.118Z,24.20
2023-02-26T00:21:24.181Z,23.30
2023-02-26T00:23:51.961Z,24.60
2023-02-26T00:26:19.585Z,22.60
2023-02-26T00:28:47.412Z,21.70
2023-02-26T00:31:16.379Z,20.70
2023-02-26T00:33:44.619Z,25.50
2023-02-26T00:36:30.471Z,22.00
2023-02-26T00:39:19.636Z,21.30
2023-02-26T00:41:47.827Z,22.10
2023-02-26T00:44:15.093Z,23.10
2023-02-26T00:46:49.253Z,24.70
2023-02-26T00:49:23.607Z,21.00
2023-02-26T00:51:57.813Z,23.70
2023-02-26T00:54:30.677Z,20.80
2023-02-26T00:56:58.852Z,23.60
2023-02-26T00:59:25.960Z,22.10
2023-02-26T01:01:53.316Z,22.70
2023-02-26T01:04:22.609Z,21.20
2023-02-26T01:06:55.523Z,21.60
2023-02-26T01:09:33.204Z,24.90
2023-02-26T01:12:05.162Z,23.60
2023-02-26T01:14:32.788Z,24.60
2023-02-26T01:17:11.693Z,21.30
2023-02-26T01:19:57.592Z,21.90
2023-02-26T01:22:47.912Z,22.60
2023-02-26T01:25:23.340Z,23.90
2023-02-26T01:27:50.723Z,25.50
2023-02-26T01:30:18.909Z,27.40
2023-02-26T01:32:53.468Z,24.60
2023-02-26T01:35:27.528Z,25.40
2023-02-26T01:38:15.352Z,21.70
2023-02-26T01:41:12.772Z,24.50
2023-02-26T01:43:50.990Z,23.30
2023-02-26T01:46:28.653Z,24.90
2023-02-26T01:48:58.294Z,25.90
2023-02-26T01:52:02.719Z,28.50
2023-02-26T01:54:32.796Z,26.40
2023-02-26T01:57:08.642Z,24.30
2023-02-26T01:59:39.209Z,23.00
2023-02-26T02:02:09.460Z,20.70
2023-02-26T02:04:37.559Z,25.80
2023-02-26T02:07:05.776Z,22.10
2023-02-26T02:09:32.845Z,18.70
2023-02-26T02:12:18.848Z,17.50
2023-02-26T02:15:12.300Z,14.20
2023-02-26T02:17:53.148Z,18.30
2023-02-26T02:20:49.221Z,18.40
2023-02-26T02:23:43.145Z,13.60
2023-02-26T02:26:28.772Z,11.70
2023-02-26T02:29:08.240Z,13.60
2023-02-26T02:31:57.288Z,17.40
2023-02-26T02:34:47.476Z,15.20
2023-02-26T02:37:20.186Z,13.70
2023-02-26T02:39:54.165Z,13.50
2023-02-26T02:42:34.901Z,12.00
2023-02-26T02:45:11.207Z,11.60
2023-02-26T02:47:42.519Z,10.80
2023-02-26T02:50:27.310Z,13.20
2023-02-26T02:52:59.911Z,9.30
2023-02-26T02:55:34.079Z,11.40
2023-02-26T02:58:11.044Z,10.90
2023-02-26T03:00:46.264Z,10.50
2023-02-26T03:03:24.072Z,10.30
2023-02-26T03:05:51.212Z,11.40
2023-02-26T03:08:23.498Z,12.60
2023-02-26T03:10:50.627Z,10.40
2023-02-26T03:13:22.749Z,10.00
2023-02-26T03:15:53.238Z,9.70
2023-02-26T03:18:45.032Z,10.80
2023-02-26T03:21:19.728Z,9.00
2023-02-26T03:24:00.107Z,8.70
2023-02-26T03:26:47.778Z,10.70
2023-02-26T03:29:18.228Z,9.40
2023-02-26T03:31:51.451Z,13.70
2023-02-26T03:34:26.942Z,9.50
2023-02-26T03:37:00.880Z,10.30
2023-02-26T03:39:38.093Z,9.50
2023-02-26T03:42:22.344Z,12.70
2023-02-26T03:45:09.796Z,8.90
2023-02-26T03:47:42.331Z,10.60
2023-02-26T03:50:21.654Z,9.60
2023-02-26T03:53:06.171Z,9.20
2023-02-26T03:56:02.177Z,8.40
2023-02-26T03:58:48.082Z,10.10
2023-02-26T04:02:03.957Z,8.10
2023-02-26T04:04:41.787Z,9.80
2023-02-26T04:07:12.226Z,8.60
2023-02-26T04:09:47.645Z,8.30
2023-02-26T04:14:46.084Z,10.20
2023-02-26T04:17:13.336Z,10.30
2023-02-26T04:19:40.602Z,9.60
2023-02-26T04:22:07.723Z,11.50
2023-02-26T04:24:35.252Z,8.80
2023-02-26T04:27:02.605Z,8.30
2023-02-26T04:29:30.297Z,7.60
2023-02-26T04:31:57.546Z,10.60
2023-02-26T04:34:24.785Z,9.00
2023-02-26T04:36:52.828Z,7.10
2023-02-26T04:39:20.310Z,10.20
2023-02-26T04:41:47.272Z,9.90
2023-02-26T04:44:14.704Z,9.00
2023-02-26T04:46:42.457Z,7.50
2023-02-26T04:49:09.825Z,8.00
2023-02-26T04:51:37.073Z,10.20
2023-02-26T04:54:04.439Z,7.80
2023-02-26T04:56:33.044Z,10.00
2023-02-26T04:59:00.896Z,8.90
2023-02-26T05:01:30.120Z,8.10
2023-02-26T05:03:58.894Z,8.70
2023-02-26T05:06:26.152Z,7.10
2023-02-26T05:08:53.262Z,10.40
2023-02-26T05:11:20.252Z,8.60
2023-02-26T05:13:47.404Z,8.20
2023-02-26T05:16:14.471Z,8.80
2023-02-26T05:18:42.478Z,8.70
2023-02-26T05:21:09.576Z,9.50
2023-02-26T05:23:37.690Z,7.80
2023-02-26T05:26:04.831Z,7.10
2023-02-26T05:28:33.245Z,8.20
2023-02-26T05:31:01.128Z,9.50
2023-02-26T05:33:28.177Z,8.40
2023-02-26T05:35:56.925Z,8.70
2023-02-26T05:38:23.891Z,8.90
2023-02-26T05:40:50.807Z,8.60
2023-02-26T05:43:17.778Z,10.00
2023-02-26T05:45:46.497Z,10.00
2023-02-26T05:48:13.456Z,10.30
2023-02-26T05:50:40.521Z,10.40
2023-02-26T05:53:08.178Z,9.30
2023-02-26T05:55:35.124Z,11.10
2023-02-26T05:58:02.140Z,9.80
2023-02-26T06:00:29.364Z,9.40
2023-02-26T06:02:56.668Z,12.50
2023-02-26T06:05:23.773Z,14.50
2023-02-26T06:07:50.896Z,9.00
2023-02-26T06:10:17.978Z,11.80
2023-02-26T06:12:44.969Z,12.90
2023-02-26T06:15:12.077Z,12.80
2023-02-26T06:17:40.771Z,7.90
2023-02-26T06:20:09.028Z,8.20
2023-02-26T06:22:36.055Z,11.40
2023-02-26T06:25:03.157Z,12.90
2023-02-26T06:27:30.205Z,10.00
2023-02-26T06:29:57.162Z,9.70
2023-02-26T06:32:24.182Z,9.50
2023-02-26T06:34:51.183Z,12.10
2023-02-26T06:37:18.105Z,12.70
2023-02-26T06:39:45.534Z,11.40
2023-02-26T06:42:12.579Z,13.40
2023-02-26T06:44:39.543Z,12.20
2023-02-26T06:47:07.246Z,9.90
2023-02-26T06:49:34.231Z,10.40
2023-02-26T06:52:01.217Z,10.20
2023-02-26T06:54:28.225Z,15.50
2023-02-26T06:56:57.228Z,9.40
2023-02-26T06:59:24.218Z,10.60
2023-02-26T07:01:51.174Z,9.00
2023-02-26T07:04:20.526Z,14.90
2023-02-26T07:06:47.644Z,9.90
2023-02-26T07:09:14.585Z,12.90
2023-02-26T07:11:41.613Z,12.10
2023-02-26T07:14:08.568Z,16.10
2023-02-26T07:16:35.611Z,14.10
2023-02-26T07:19:02.681Z,12.60
2023-02-26T07:21:29.717Z,12.10
2023-02-26T07:23:56.589Z,21.50
2023-02-26T07:26:23.975Z,11.40
2023-02-26T07:28:51.263Z,14.70
2023-02-26T07:31:18.405Z,16.90
2023-02-26T07:33:45.535Z,15.70
2023-02-26T07:36:12.584Z,17.20
2023-02-26T07:38:39.605Z,14.60
2023-02-26T07:41:06.641Z,11.50
2023-02-26T07:43:33.594Z,11.70
2023-02-26T07:46:00.460Z,14.10
2023-02-26T07:48:27.451Z,11.60
2023-02-26T07:50:54.967Z,11.50
2023-02-26T07:53:22.036Z,11.10
2023-02-26T07:55:49.188Z,9.90
2023-02-26T07:58:16.545Z,17.10
2023-02-26T08:00:43.925Z,11.20
2023-02-26T08:03:10.922Z,13.70
2023-02-26T08:05:37.877Z,15.20
2023-02-26T08:08:04.842Z,16.60
2023-02-26T08:10:32.272Z,14.30
2023-02-26T08:12:59.244Z,14.50
2023-02-26T08:15:26.294Z,14.80
2023-02-26T08:17:53.957Z,12.40
2023-02-26T08:20:20.956Z,9.10
2023-02-26T08:22:49.511Z,11.40
2023-02-26T08:25:16.554Z,12.50
2023-02-26T08:27:43.493Z,7.70
2023-02-26T08:30:11.085Z,11.90
2023-02-26T08:32:39.350Z,11.20
2023-02-26T08:35:06.508Z,11.90
2023-02-26T08:37:33.490Z,11.50
2023-02-26T08:40:00.439Z,8.90
2023-02-26T08:42:27.553Z,13.30
2023-02-26T08:44:54.399Z,11.50
2023-02-26T08:47:28.438Z,13.10
2023-02-26T08:49:56.495Z,13.10
2023-02-26T08:52:36.190Z,11.70
2023-02-26T08:55:03.222Z,10.10
2023-02-26T08:57:30.256Z,12.40
2023-02-26T08:59:57.164Z,8.00
2023-02-26T09:02:24.123Z,9.00
2023-02-26T09:04:51.071Z,9.60
2023-02-26T09:07:18.060Z,9.10
2023-02-26T09:09:45.146Z,9.30
2023-02-26T09:12:12.269Z,12.30
2023-02-26T09:14:39.268Z,10.40
2023-02-26T09:17:06.392Z,10.90
2023-02-26T09:19:33.689Z,13.20
2023-02-26T09:22:00.819Z,12.00
2023-02-26T09:24:29.657Z,15.20
2023-02-26T09:26:56.965Z,13.50
2023-02-26T09:29:24.101Z,13.90
2023-02-26T09:31:51.637Z,17.30
2023-02-26T09:34:19.978Z,10.50
2023-02-26T09:36:47.369Z,14.50
2023-02-26T09:39:17.483Z,13.00
2023-02-26T09:41:51.572Z,8.70
2023-02-26T09:44:25.132Z,10.20
2023-02-26T09:47:13.702Z,10.50
2023-02-26T09:49:50.400Z,13.70
2023-02-26T09:52:31.623Z,10.10
2023-02-26T09:55:04.696Z,8.40
2023-02-26T09:57:35.247Z,14.00
2023-02-26T10:00:17.286Z,13.40
2023-02-26T10:03:44.311Z,16.30
2023-02-26T10:06:26.431Z,11.30
2023-02-26T10:09:08.799Z,23.10
2023-02-26T10:11:57.663Z,19.70
2023-02-26T10:15:00.054Z,22.10
2023-02-26T10:17:41.265Z,12.10
2023-02-26T10:20:20.613Z,10.90
2023-02-26T10:22:58.692Z,9.10
2023-02-26T10:25:43.747Z,9.90
2023-02-26T10:28:13.702Z,15.30
2023-02-26T10:30:43.524Z,12.60
2023-02-26T10:33:18.159Z,14.90
2023-02-26T10:35:54.023Z,21.20
2023-02-26T10:38:25.559Z,12.20
2023-02-26T10:40:55.624Z,10.10
2023-02-26T10:43:29.705Z,9.10
2023-02-26T10:46:06.118Z,8.20
2023-02-26T10:49:21.457Z,10.10
2023-02-26T10:51:52.119Z,8.40
2023-02-26T10:54:36.829Z,9.60
2023-02-26T10:57:04.060Z,9.80
2023-02-26T10:59:31.425Z,14.70
2023-02-26T11:01:59.465Z,9.70
2023-02-26T11:04:27.749Z,13.90
2023-02-26T11:06:57.418Z,18.10
2023-02-26T11:09:28.563Z,12.70
2023-02-26T11:12:01.182Z,13.90
2023-02-26T11:14:30.770Z,13.50
2023-02-26T11:17:01.375Z,8.80
2023-02-26T11:19:32.566Z,12.00
2023-02-26T11:22:03.494Z,9.60
2023-02-26T11:24:35.880Z,8.60
2023-02-26T11:27:06.057Z,8.50
2023-02-26T11:29:43.130Z,7.60
2023-02-26T11:32:18.303Z,9.60
2023-02-26T11:37:27.513Z,15.00
2023-02-26T11:39:59.966Z,14.40
2023-02-26T11:42:28.767Z,10.40
2023-02-26T11:44:59.176Z,9.00
2023-02-26T11:47:30.140Z,9.90
2023-02-26T11:50:04.961Z,7.60
2023-02-26T11:52:31.796Z,7.90
2023-02-26T11:55:05.853Z,10.60
2023-02-26T11:57:33.160Z,11.60
2023-02-26T12:00:16.323Z,9.80
2023-02-26T12:02:43.283Z,12.90
2023-02-26T12:05:23.133Z,12.00
2023-02-26T12:07:50.098Z,9.20
2023-02-26T12:10:23.367Z,10.20
2023-02-26T12:13:16.845Z,10.20
2023-02-26T12:16:10.112Z,13.40
2023-02-26T12:18:54.525Z,10.20
2023-02-26T12:21:56.162Z,10.10
2023-02-26T12:25:01.648Z,10.10
2023-02-26T12:27:55.241Z,8.80
2023-02-26T12:30:46.528Z,11.60
2023-02-26T12:33:22.850Z,10.70
2023-02-26T12:35:52.506Z,6.70
2023-02-26T12:38:34.484Z,10.30
2023-02-26T12:41:15.796Z,9.50
2023-02-26T12:44:07.594Z,10.70
2023-02-26T12:46:50.191Z,12.30
2023-02-26T12:49:41.221Z,9.40
2023-02-26T12:52:18.299Z,11.00
2023-02-26T12:55:08.672Z,12.90
2023-02-26T12:57:55.804Z,14.40
2023-02-26T13:00:35.366Z,12.50
2023-02-26T13:03:23.833Z,12.50
2023-02-26T13:06:12.798Z,11.60
2023-02-26T13:08:58.993Z,19.40
2023-02-26T13:11:55.741Z,11.70
2023-02-26T13:15:07.391Z,9.10
2023-02-26T13:17:52.111Z,9.00
2023-02-26T13:20:25.701Z,13.80
2023-02-26T13:23:10.041Z,10.70
2023-02-26T13:25:51.201Z,12.80
2023-02-26T13:28:24.210Z,10.20
2023-02-26T13:30:56.154Z,11.80
2023-02-26T13:33:28.287Z,13.50
2023-02-26T13:35:56.948Z,10.40
2023-02-26T13:38:44.546Z,8.20
2023-02-26T13:41:33.280Z,9.70
2023-02-26T13:44:29.652Z,8.30
2023-02-26T13:47:17.091Z,12.80
2023-02-26T13:50:12.582Z,9.60
2023-02-26T13:53:09.433Z,14.30
2023-02-26T13:55:42.849Z,8.50
2023-02-26T13:58:22.014Z,11.30
2023-02-26T14:01:07.990Z,15.50
2023-02-26T14:03:49.711Z,12.40
2023-02-26T14:06:23.625Z,13.50
2023-02-26T14:08:56.814Z,14.80
2023-02-26T14:11:46.294Z,10.60
2023-02-26T14:14:37.063Z,11.90
2023-02-26T14:17:07.452Z,12.10
2023-02-26T14:19:41.877Z,13.20
2023-02-26T14:22:08.785Z,13.90
2023-02-26T14:24:44.862Z,14.60
2023-02-26T14:27:11.824Z,13.70
2023-02-26T14:30:04.129Z,15.20
2023-02-26T14:32:53.252Z,16.10
2023-02-26T14:35:27.383Z,12.70
2023-02-26T14:38:25.999Z,10.20
2023-02-26T14:41:05.271Z,13.40
2023-02-26T14:43:52.280Z,13.80
2023-02-26T14:46:36.176Z,11.40
2023-02-26T14:49:07.140Z,10.80
2023-02-26T14:52:07.621Z,10.60
2023-02-26T14:55:15.202Z,17.70
2023-02-26T14:57:58.858Z,18.70
2023-02-26T15:00:35.706Z,12.10
2023-02-26T15:03:27.717Z,14.50
2023-02-26T15:06:18.359Z,15.70
2023-02-26T15:09:01.464Z,13.00
2023-02-26T15:12:00.987Z,11.20
2023-02-26T15:14:56.520Z,18.30
2023-02-26T15:17:54.903Z,13.10
2023-02-26T15:20:36.405Z,14.60
2023-02-26T15:23:46.891Z,15.90
2023-02-26T15:26:38.947Z,19.70
2023-02-26T15:29:09.939Z,17.80
2023-02-26T15:31:52.458Z,15.80
2023-02-26T15:34:22.262Z,19.90
2023-02-26T15:36:53.409Z,29.60
2023-02-26T15:39:23.957Z,15.50
2023-02-26T15:41:54.298Z,16.00
2023-02-26T15:44:31.463Z,15.70
2023-02-26T15:47:03.885Z,12.50
2023-02-26T15:49:39.760Z,13.90
2023-02-26T15:52:11.846Z,19.30
2023-02-26T15:54:45.950Z,14.20
2023-02-26T15:57:14.742Z,15.10
2023-02-26T16:00:15.717Z,15.90
2023-02-26T16:02:44.961Z,14.40
2023-02-26T16:05:15.944Z,9.30
2023-02-26T16:07:42.910Z,13.10
2023-02-26T16:10:28.143Z,16.00
2023-02-26T16:12:55.305Z,22.30
2023-02-26T16:15:31.235Z,15.10
2023-02-26T16:18:01.378Z,12.80
2023-02-26T16:20:36.016Z,10.50
2023-02-26T16:23:10.092Z,12.20
2023-02-26T16:25:43.474Z,13.60
2023-02-26T16:28:23.004Z,15.10
2023-02-26T16:30:54.410Z,19.30
2023-02-26T16:33:24.470Z,17.30
2023-02-26T16:35:56.980Z,14.20
2023-02-26T16:38:30.260Z,15.50
2023-02-26T16:41:05.171Z,12.30
2023-02-26T16:43:34.953Z,14.40
2023-02-26T16:46:04.832Z,26.90
2023-02-26T16:48:46.230Z,31.10
2023-02-26T16:51:19.696Z,26.30
2023-02-26T16:53:48.996Z,17.30
2023-02-26T16:56:19.077Z,19.50
2023-02-26T16:59:05.635Z,22.30
2023-02-26T17:01:39.772Z,19.70
2023-02-26T17:04:09.115Z,19.90
2023-02-26T17:06:39.433Z,23.80
2023-02-26T17:09:09.945Z,22.30
2023-02-26T17:11:44.415Z,19.00
2023-02-26T17:14:18.620Z,23.30
2023-02-26T17:16:46.591Z,13.90
2023-02-26T17:19:13.915Z,12.00
2023-02-26T17:21:59.716Z,13.00
2023-02-26T17:24:33.675Z,11.30
2023-02-26T17:27:04.096Z,11.60
2023-02-26T17:29:42.087Z,14.60
2023-02-26T17:32:17.729Z,15.30
2023-02-26T17:34:45.008Z,12.80
2023-02-26T17:37:13.132Z,13.70
2023-02-26T17:39:43.543Z,17.00
2023-02-26T17:42:12.916Z,14.60
2023-02-26T17:44:39.861Z,18.00
2023-02-26T17:47:15.811Z,19.90
2023-02-26T17:49:44.785Z,15.70
2023-02-26T17:52:13.294Z,15.10
2023-02-26T17:54:45.520Z,15.80
2023-02-26T17:57:22.754Z,21.10
2023-02-26T17:59:52.381Z,15.90
2023-02-26T18:02:26.765Z,13.90
2023-02-26T18:05:00.637Z,19.40
2023-02-26T18:07:29.787Z,19.10
2023-02-26T18:09:59.258Z,19.60
2023-02-26T18:12:32.098Z,15.30
2023-02-26T18:15:02.272Z,17.10
2023-02-26T18:17:34.296Z,19.70
2023-02-26T18:20:09.712Z,17.80
2023-02-26T18:22:38.447Z,16.50
2023-02-26T18:25:08.158Z,17.90
2023-02-26T18:27:39.534Z,20.00
2023-02-26T18:30:23.976Z,20.30
2023-02-26T18:32:52.465Z,47.50
2023-02-26T18:35:22.498Z,19.70
2023-02-26T18:37:53.201Z,22.00
2023-02-26T18:40:23.352Z,19.10
2023-02-26T18:42:50.904Z,19.70
2023-02-26T18:45:19.292Z,18.40
2023-02-26T18:47:47.609Z,26.10
2023-02-26T18:50:16.885Z,41.00
2023-02-26T18:52:44.284Z,34.30
2023-02-26T18:55:12.541Z,32.30
2023-02-26T18:57:41.940Z,38.70
2023-02-26T19:00:16.758Z,40.40
2023-02-26T19:02:46.484Z,35.40
2023-02-26T19:05:15.795Z,37.80
2023-02-26T19:07:43.923Z,38.30
2023-02-26T19:10:14.230Z,36.00
2023-02-26T19:12:42.536Z,33.80
2023-02-26T19:15:12.198Z,32.50
2023-02-26T19:17:41.953Z,31.80
2023-02-26T19:20:10.156Z,25.40
2023-02-26T19:22:37.507Z,23.00
2023-02-26T19:25:06.167Z,22.00
2023-02-26T19:27:34.409Z,20.70
2023-02-26T19:30:02.909Z,18.70
2023-02-26T19:32:32.089Z,19.30
2023-02-26T19:35:01.637Z,18.80
2023-02-26T19:37:28.709Z,25.20
2023-02-26T19:39:58.245Z,20.80
2023-02-26T19:42:28.308Z,29.00
2023-02-26T19:44:55.539Z,22.60
2023-02-26T19:47:22.943Z,24.70
2023-02-26T19:49:50.504Z,26.00
2023-02-26T19:52:19.425Z,30.30
2023-02-26T19:54:46.454Z,33.10
2023-02-26T19:57:13.515Z,35.20
2023-02-26T19:59:41.878Z,37.40
2023-02-26T20:02:09.270Z,38.10
2023-02-26T20:04:38.060Z,40.00
2023-02-26T20:07:06.869Z,33.10
2023-02-26T20:09:34.849Z,36.30
2023-02-26T20:12:05.861Z,30.90
2023-02-26T20:14:35.422Z,32.20
2023-02-26T20:17:02.615Z,28.80
2023-02-26T20:19:29.716Z,30.90
2023-02-26T20:21:58.027Z,33.20
2023-02-26T20:24:25.905Z,30.10
2023-02-26T20:26:53.685Z,31.30
2023-02-26T20:29:23.138Z,29.80
2023-02-26T20:31:50.477Z,35.30
2023-02-26T20:34:19.385Z,37.50
2023-02-26T20:36:49.332Z,30.80
2023-02-26T20:39:20.419Z,27.30
2023-02-26T20:41:47.569Z,29.60
2023-02-26T20:44:14.886Z,28.40
2023-02-26T20:46:42.295Z,27.60
2023-02-26T20:49:10.990Z,34.00
2023-02-26T20:51:42.271Z,28.40
2023-02-26T20:54:14.058Z,28.40
2023-02-26T20:56:41.200Z,27.70
2023-02-26T20:59:09.018Z,32.30
2023-02-26T21:01:36.171Z,27.40
2023-02-26T21:04:06.226Z,32.10
2023-02-26T21:06:33.455Z,25.70
2023-02-26T21:09:02.503Z,23.50
2023-02-26T21:11:30.674Z,25.40
2023-02-26T21:13:58.878Z,27.30
2023-02-26T21:16:29.673Z,23.60
2023-02-26T21:18:59.586Z,26.80
2023-02-26T21:21:27.575Z,23.50
2023-02-26T21:23:55.016Z,26.80
2023-02-26T21:26:23.181Z,27.00
2023-02-26T21:28:50.229Z,24.40
2023-02-26T21:31:20.153Z,36.80
2023-02-26T21:33:48.361Z,30.20
2023-02-26T21:36:16.309Z,34.90
2023-02-26T21:38:43.648Z,30.50
2023-02-26T21:41:10.763Z,29.50
2023-02-26T21:43:38.550Z,22.70
2023-02-26T21:46:05.779Z,27.00
2023-02-26T21:48:32.908Z,26.60
2023-02-26T21:51:00.510Z,27.40
2023-02-26T21:53:27.931Z,28.80
2023-02-26T21:55:56.209Z,27.80
2023-02-26T21:58:24.951Z,24.70
2023-02-26T22:00:51.962Z,26.60
2023-02-26T22:03:19.412Z,26.90
2023-02-26T22:05:50.367Z,23.00
2023-02-26T22:08:18.309Z,28.20
2023-02-26T22:10:45.343Z,28.80
2023-02-26T22:13:13.426Z,32.50
2023-02-26T22:15:41.385Z,35.30
2023-02-26T22:18:08.470Z,40.60
2023-02-26T22:20:35.627Z,41.20
2023-02-26T22:23:03.954Z,42.80
2023-02-26T22:25:31.665Z,38.60
2023-02-26T22:27:58.812Z,38.30
2023-02-26T22:30:25.990Z,26.90
2023-02-26T22:32:52.960Z,30.90
2023-02-26T22:35:19.976Z,27.20
2023-02-26T22:37:46.970Z,28.60
2023-02-26T22:40:14.329Z,32.90
2023-02-26T22:42:43.021Z,30.80
2023-02-26T22:45:16.416Z,29.20
2023-02-26T22:47:47.743Z,27.60
2023-02-26T22:50:15.816Z,28.80
2023-02-26T22:52:43.258Z,26.70
2023-02-26T22:55:11.375Z,26.20
2023-02-26T22:57:38.793Z,22.40
2023-02-26T23:00:10.804Z,25.20
2023-02-26T23:02:38.367Z,27.60
2023-02-26T23:05:08.633Z,27.50
2023-02-26T23:07:36.822Z,21.40
2023-02-26T23:10:06.066Z,28.70
2023-02-26T23:12:33.208Z,30.30
2023-02-26T23:15:00.518Z,24.00
2023-02-26T23:17:27.592Z,22.10
2023-02-26T23:19:54.637Z,27.40
2023-02-26T23:22:22.065Z,22.50
2023-02-26T23:24:49.230Z,24.90
2023-02-26T23:27:16.699Z,25.20
2023-02-26T23:29:45.068Z,25.60
2023-02-26T23:32:13.295Z,24.60
2023-02-26T23:34:40.554Z,26.50
2023-02-26T23:37:07.577Z,22.30
2023-02-26T23:39:34.620Z,26.70
2023-02-26T23:42:01.482Z,24.80
2023-02-26T23:44:31.390Z,26.00
2023-02-26T23:46:58.451Z,23.20
2023-02-26T23:49:25.425Z,26.50
2023-02-26T23:51:52.430Z,23.90
2023-02-26T23:54:19.381Z,22.80
2023-02-26T23:56:47.422Z,22.60
2023-02-26T23:59:14.492Z,21.70
